Time;durP1;ratioP1;P1;durP2;ratioP2;P2;SDS_P1;SDS_P2;PMS_P1;PMS_P2;Temp;Humidity;BMP_temperature;BMP_pressure;BME280_temperature;BME280_humidity;BME280_pressure;Samples;Min_cycle;Max_cycle;Signal;HPM_P1;HPM_P2
2023/08/08 00:01:47;;;;;;;6.15;2.30;;;12.00;99.90;;;;;;4983055;28;20035;-57
2023/08/08 00:04:12;;;;;;;4.85;1.95;;;12.00;99.90;;;;;;4987608;28;20799;-59
2023/08/08 00:06:38;;;;;;;4.63;1.90;;;12.00;99.90;;;;;;4990252;28;20025;-57
2023/08/08 00:09:03;;;;;;;4.60;1.90;;;12.00;99.90;;;;;;4988014;28;20022;-57
2023/08/08 00:11:30;;;;;;;5.10;2.22;;;12.00;99.90;;;;;;4990958;28;20057;-58
2023/08/08 00:13:56;;;;;;;3.15;1.73;;;12.00;99.90;;;;;;4984764;28;20058;-58
2023/08/08 00:16:22;;;;;;;5.90;2.30;;;12.00;99.90;;;;;;4979629;28;20718;-57
2023/08/08 00:18:49;;;;;;;8.57;2.30;;;12.00;99.90;;;;;;4974134;28;20058;-62
2023/08/08 00:21:15;;;;;;;7.57;2.05;;;11.90;99.90;;;;;;4981946;28;20029;-57
2023/08/08 00:23:40;;;;;;;6.95;2.53;;;11.90;99.90;;;;;;4986536;28;20030;-59
2023/08/08 00:26:06;;;;;;;13.43;3.03;;;11.90;99.90;;;;;;4987495;28;20026;-56
2023/08/08 00:28:31;;;;;;;3.30;1.75;;;11.90;99.90;;;;;;4984950;28;20026;-56
2023/08/08 00:30:57;;;;;;;4.28;2.13;;;11.90;99.90;;;;;;4982270;28;20034;-55
2023/08/08 00:33:23;;;;;;;3.00;2.30;;;11.90;99.90;;;;;;4986588;28;20030;-53
2023/08/08 00:35:48;;;;;;;3.17;1.73;;;11.90;99.90;;;;;;4987495;28;20529;-57
2023/08/08 00:38:14;;;;;;;3.83;2.03;;;11.90;99.90;;;;;;4978173;28;20029;-53
2023/08/08 00:40:40;;;;;;;4.85;2.15;;;11.90;99.90;;;;;;4981753;28;20023;-58
2023/08/08 00:43:05;;;;;;;5.45;2.33;;;11.90;99.90;;;;;;4982196;28;20022;-51
2023/08/08 00:45:31;;;;;;;2.72;2.05;;;11.90;99.90;;;;;;4981449;28;20034;-50
2023/08/08 00:47:56;;;;;;;6.03;2.75;;;11.90;99.90;;;;;;4981816;28;20030;-56
2023/08/08 00:50:23;;;;;;;5.40;2.30;;;11.90;99.90;;;;;;4985445;28;20125;-56
2023/08/08 00:52:48;;;;;;;4.63;1.77;;;11.90;99.90;;;;;;4980649;28;20019;-57
2023/08/08 00:55:15;;;;;;;4.05;2.00;;;11.90;99.90;;;;;;4984812;28;20022;-58
2023/08/08 00:57:40;;;;;;;2.97;2.13;;;11.90;99.90;;;;;;4980061;28;20030;-58
2023/08/08 01:00:11;;;;;;;11.30;2.58;;;11.90;99.90;;;;;;4976897;28;20093;-58
2023/08/08 01:02:37;;;;;;;4.18;2.22;;;11.90;99.90;;;;;;4983206;28;20104;-56
2023/08/08 01:05:04;;;;;;;4.28;2.17;;;11.90;99.90;;;;;;4975162;28;20089;-60
2023/08/08 01:07:51;;;;;;;6.15;2.20;;;11.90;99.90;;;;;;4984882;28;20033;-60
2023/08/08 01:10:23;;;;;;;5.35;2.30;;;11.90;99.90;;;;;;4978708;28;20026;-61
2023/08/08 01:12:52;;;;;;;4.68;2.08;;;11.90;99.90;;;;;;4981201;28;20022;-56
2023/08/08 01:15:19;;;;;;;4.20;1.98;;;11.90;99.90;;;;;;4978740;28;20018;-57
2023/08/08 01:17:46;;;;;;;5.40;2.22;;;11.90;99.90;;;;;;4981774;28;20022;-59
2023/08/08 01:20:16;;;;;;;3.85;2.10;;;11.90;99.90;;;;;;4975560;28;20073;-57
2023/08/08 01:23:24;;;;;;;5.05;2.63;;;11.90;99.90;;;;;;4981334;28;20033;-57
2023/08/08 01:25:51;;;;;;;3.03;1.73;;;11.90;99.90;;;;;;4971542;28;20026;-55
2023/08/08 01:28:21;;;;;;;3.17;1.83;;;11.90;99.90;;;;;;4978394;28;20023;-56
2023/08/08 01:30:46;;;;;;;4.32;1.70;;;11.90;99.90;;;;;;4979542;28;20036;-56
2023/08/08 01:33:12;;;;;;;5.30;2.10;;;11.90;99.90;;;;;;4980065;28;20035;-55
2023/08/08 01:35:40;;;;;;;4.75;1.52;;;11.90;99.90;;;;;;4979113;28;20019;-57
2023/08/08 01:38:19;;;;;;;3.25;1.67;;;11.90;99.90;;;;;;4981899;28;20018;-56
2023/08/08 01:40:45;;;;;;;6.43;1.48;;;11.90;99.90;;;;;;4982797;28;20019;-55
2023/08/08 01:43:13;;;;;;;2.83;1.45;;;12.00;99.90;;;;;;4981568;28;20033;-53
2023/08/08 01:45:39;;;;;;;6.55;1.85;;;12.00;99.90;;;;;;4981146;28;20022;-54
2023/08/08 01:48:12;;;;;;;3.08;1.70;;;12.00;99.90;;;;;;4982882;28;20101;-53
2023/08/08 01:50:38;;;;;;;4.40;1.70;;;12.00;99.90;;;;;;4982874;28;20069;-55
2023/08/08 01:53:04;;;;;;;2.10;1.48;;;11.90;99.90;;;;;;4983359;28;20026;-56
2023/08/08 01:55:30;;;;;;;4.30;1.20;;;11.90;99.90;;;;;;4985749;28;20097;-56
2023/08/08 01:57:56;;;;;;;6.18;2.30;;;11.90;99.90;;;;;;4978378;28;20045;-56
2023/08/08 02:00:22;;;;;;;4.18;1.80;;;11.90;99.90;;;;;;4976476;28;20060;-57
2023/08/08 02:02:47;;;;;;;6.18;2.17;;;11.90;99.90;;;;;;4978843;28;20014;-57
2023/08/08 02:05:13;;;;;;;5.45;2.30;;;11.90;99.90;;;;;;4977183;28;20101;-57
2023/08/08 02:07:38;;;;;;;1.73;1.50;;;11.90;99.90;;;;;;4979151;28;20054;-56
2023/08/08 02:10:04;;;;;;;5.28;1.90;;;11.90;99.90;;;;;;4975566;28;20771;-54
2023/08/08 02:12:30;;;;;;;7.53;2.10;;;11.90;99.90;;;;;;4980894;28;20481;-52
2023/08/08 02:14:57;;;;;;;4.03;1.70;;;12.00;99.90;;;;;;4972484;28;20031;-54
2023/08/08 02:17:22;;;;;;;5.13;2.17;;;12.00;99.90;;;;;;4984257;28;20025;-53
2023/08/08 02:19:48;;;;;;;7.00;2.15;;;12.00;99.90;;;;;;4974332;28;20022;-54
2023/08/08 02:22:14;;;;;;;5.38;1.70;;;12.00;99.90;;;;;;4984006;28;20023;-54
2023/08/08 02:24:39;;;;;;;3.63;1.73;;;11.90;99.90;;;;;;4976223;28;20018;-57
2023/08/08 02:27:05;;;;;;;5.15;1.52;;;11.90;99.90;;;;;;4983423;28;20423;-55
2023/08/08 02:29:30;;;;;;;4.75;1.60;;;11.90;99.90;;;;;;4977342;28;20084;-55
2023/08/08 02:31:56;;;;;;;9.13;2.30;;;11.90;99.90;;;;;;4979660;28;20035;-54
2023/08/08 02:34:21;;;;;;;4.80;2.00;;;11.90;99.90;;;;;;4974646;28;20106;-56
2023/08/08 02:36:47;;;;;;;7.28;2.00;;;12.00;99.90;;;;;;4981741;28;20027;-56
2023/08/08 02:39:13;;;;;;;5.90;1.65;;;12.00;99.90;;;;;;4981427;28;20018;-56
2023/08/08 02:41:39;;;;;;;3.25;1.25;;;12.00;99.90;;;;;;4983180;28;20022;-55
2023/08/08 02:44:04;;;;;;;4.82;1.50;;;12.00;99.90;;;;;;4986992;28;20038;-57
2023/08/08 02:46:30;;;;;;;8.05;2.08;;;11.90;99.90;;;;;;4981892;28;20513;-57
2023/08/08 02:48:55;;;;;;;4.90;1.63;;;11.90;99.90;;;;;;4987485;28;20530;-52
2023/08/08 02:51:21;;;;;;;4.10;1.55;;;11.90;99.90;;;;;;4986318;28;20521;-55
2023/08/08 02:53:46;;;;;;;3.40;1.30;;;11.90;99.90;;;;;;4991945;28;20032;-61
2023/08/08 02:56:12;;;;;;;3.78;1.25;;;11.90;99.90;;;;;;4992592;28;20026;-58
2023/08/08 02:58:38;;;;;;;3.10;1.60;;;12.00;99.90;;;;;;4991827;28;20109;-53
2023/08/08 03:01:03;;;;;;;4.30;1.63;;;11.90;99.90;;;;;;4984544;28;20643;-51
2023/08/08 03:03:29;;;;;;;3.40;0.93;;;11.90;99.90;;;;;;4992499;28;20062;-54
2023/08/08 03:05:54;;;;;;;6.30;1.30;;;11.90;99.90;;;;;;4982143;28;20516;-53
2023/08/08 03:08:20;;;;;;;2.55;1.50;;;11.90;99.90;;;;;;4991517;28;20620;-50
2023/08/08 03:10:45;;;;;;;4.25;1.23;;;11.90;99.90;;;;;;4986549;28;20030;-54
2023/08/08 03:13:11;;;;;;;7.53;2.13;;;11.90;99.90;;;;;;4990480;28;20030;-57
2023/08/08 03:15:37;;;;;;;3.25;1.50;;;11.90;99.90;;;;;;4986596;28;20543;-49
2023/08/08 03:18:03;;;;;;;2.65;1.27;;;11.90;99.90;;;;;;4989273;28;20521;-51
2023/08/08 03:20:29;;;;;;;2.75;1.15;;;11.90;99.90;;;;;;4986409;28;20019;-50
2023/08/08 03:22:54;;;;;;;3.03;1.27;;;11.90;99.90;;;;;;4988463;28;20027;-55
2023/08/08 03:25:20;;;;;;;6.32;1.95;;;11.90;99.90;;;;;;4986577;28;20023;-50
2023/08/08 03:27:45;;;;;;;4.22;1.42;;;11.90;99.90;;;;;;4988692;28;20501;-50
2023/08/08 03:30:12;;;;;;;4.82;1.35;;;11.90;99.90;;;;;;4984284;28;20029;-52
2023/08/08 03:32:37;;;;;;;5.63;1.85;;;11.90;99.90;;;;;;4989812;28;20045;-53
2023/08/08 03:35:04;;;;;;;8.48;1.58;;;11.90;99.90;;;;;;4986251;28;20485;-54
2023/08/08 03:37:29;;;;;;;2.20;1.60;;;11.90;99.90;;;;;;4988216;28;20109;-54
2023/08/08 03:39:55;;;;;;;3.47;1.90;;;11.90;99.90;;;;;;4987035;28;20110;-50
2023/08/08 03:42:21;;;;;;;5.05;1.90;;;11.80;99.90;;;;;;4987010;28;20038;-49
2023/08/08 03:44:46;;;;;;;6.35;1.48;;;11.80;99.90;;;;;;4988838;28;20034;-49
2023/08/08 03:47:12;;;;;;;1.80;0.95;;;11.80;99.90;;;;;;4984393;28;20081;-51
2023/08/08 03:49:37;;;;;;;2.63;1.25;;;11.90;99.90;;;;;;4990905;28;20037;-50
2023/08/08 03:52:04;;;;;;;1.60;1.10;;;11.90;99.90;;;;;;4986386;28;20058;-55
2023/08/08 03:54:30;;;;;;;2.85;1.30;;;11.90;99.90;;;;;;4984712;28;20019;-56
2023/08/08 03:56:55;;;;;;;2.92;1.80;;;11.90;99.90;;;;;;4986327;28;20046;-57
2023/08/08 03:59:21;;;;;;;2.72;1.58;;;11.90;99.90;;;;;;5005721;22;20050;-65
2023/08/08 04:01:47;;;;;;;2.90;1.65;;;11.90;99.90;;;;;;4989692;28;20035;-64
2023/08/08 04:04:12;;;;;;;6.03;1.50;;;11.90;99.90;;;;;;4985000;28;20077;-64
2023/08/08 04:06:38;;;;;;;3.67;1.50;;;11.90;99.90;;;;;;4988985;28;20026;-63
2023/08/08 04:09:03;;;;;;;2.17;1.40;;;11.90;99.90;;;;;;4983738;28;20414;-65
2023/08/08 04:11:29;;;;;;;3.95;1.67;;;12.00;99.90;;;;;;4980649;28;20026;-65
2023/08/08 04:13:54;;;;;;;2.88;1.50;;;12.00;99.90;;;;;;4983021;28;20026;-68
2023/08/08 04:16:20;;;;;;;2.35;1.10;;;12.00;99.90;;;;;;4981434;28;20432;-65
2023/08/08 04:18:46;;;;;;;4.65;1.27;;;12.00;99.90;;;;;;4981439;28;20485;-66
2023/08/08 04:21:11;;;;;;;5.70;2.33;;;12.00;99.90;;;;;;4983029;28;20042;-65
2023/08/08 04:23:37;;;;;;;3.50;1.17;;;12.00;99.90;;;;;;4981200;28;20401;-65
2023/08/08 04:26:03;;;;;;;4.18;1.27;;;12.00;99.90;;;;;;4984832;28;20047;-65
2023/08/08 04:28:28;;;;;;;1.60;1.30;;;12.00;99.90;;;;;;4978326;28;20115;-65
2023/08/08 04:30:54;;;;;;;2.65;1.42;;;12.00;99.90;;;;;;4981584;28;20555;-65
2023/08/08 04:33:19;;;;;;;7.18;1.42;;;12.00;99.90;;;;;;4978726;28;20038;-66
2023/08/08 04:35:45;;;;;;;4.32;1.60;;;12.00;99.90;;;;;;4980288;28;20049;-65
2023/08/08 04:38:13;;;;;;;3.13;1.05;;;12.00;99.90;;;;;;4981080;28;20054;-67
2023/08/08 04:40:38;;;;;;;2.38;1.20;;;12.00;99.90;;;;;;4979854;28;20053;-65
2023/08/08 04:43:04;;;;;;;4.53;1.50;;;12.00;99.90;;;;;;4980785;28;20058;-65
2023/08/08 04:45:29;;;;;;;4.40;1.27;;;12.00;99.90;;;;;;4979687;28;20023;-66
2023/08/08 04:47:55;;;;;;;2.08;1.40;;;12.00;99.90;;;;;;4981250;28;20030;-66
2023/08/08 04:50:21;;;;;;;6.43;1.58;;;12.00;99.90;;;;;;4978805;28;20069;-64
2023/08/08 04:52:46;;;;;;;3.22;1.08;;;11.90;99.90;;;;;;4981432;28;20049;-66
2023/08/08 04:55:12;;;;;;;1.77;1.33;;;11.90;99.90;;;;;;4981726;28;20092;-66
2023/08/08 04:57:38;;;;;;;2.03;1.45;;;11.90;99.90;;;;;;4981605;28;20038;-64
2023/08/08 05:00:06;;;;;;;4.47;1.13;;;11.90;99.90;;;;;;4982962;28;20029;-65
2023/08/08 05:02:32;;;;;;;1.33;0.90;;;11.90;99.90;;;;;;4974154;28;20453;-67
2023/08/08 05:04:57;;;;;;;1.65;1.25;;;11.90;99.90;;;;;;4980375;28;20031;-65
2023/08/08 05:07:23;;;;;;;4.50;1.38;;;11.90;99.90;;;;;;4976558;28;20030;-63
2023/08/08 05:09:48;;;;;;;1.70;1.02;;;11.90;99.90;;;;;;4980920;28;20018;-65
2023/08/08 05:12:14;;;;;;;3.70;1.10;;;11.90;99.90;;;;;;4975248;28;20019;-65
2023/08/08 05:14:40;;;;;;;2.05;0.98;;;11.90;99.90;;;;;;4977623;28;20097;-65
2023/08/08 05:17:05;;;;;;;2.05;1.13;;;11.90;99.90;;;;;;4978606;28;20031;-65
2023/08/08 05:19:31;;;;;;;4.07;1.88;;;11.90;99.90;;;;;;4978848;28;20018;-65
2023/08/08 05:21:56;;;;;;;3.13;1.00;;;12.00;99.90;;;;;;4979486;28;20429;-64
2023/08/08 05:24:22;;;;;;;3.33;1.20;;;12.00;99.90;;;;;;4979418;28;20616;-66
2023/08/08 05:26:48;;;;;;;3.47;1.25;;;12.00;99.90;;;;;;4979706;28;20493;-65
2023/08/08 05:29:13;;;;;;;1.88;0.90;;;12.00;99.90;;;;;;4979875;28;20404;-66
2023/08/08 05:31:39;;;;;;;6.60;1.10;;;12.00;99.90;;;;;;4978714;28;20053;-67
2023/08/08 05:34:04;;;;;;;1.70;1.25;;;12.10;99.90;;;;;;4980988;28;20038;-64
2023/08/08 05:36:30;;;;;;;2.17;1.00;;;12.10;99.90;;;;;;4980146;28;20026;-66
2023/08/08 05:38:55;;;;;;;2.80;0.98;;;12.10;99.90;;;;;;4982255;28;20026;-67
2023/08/08 05:41:21;;;;;;;5.18;1.27;;;12.10;99.90;;;;;;4981375;28;20036;-66
2023/08/08 05:43:46;;;;;;;4.03;1.30;;;12.20;99.90;;;;;;4983358;28;20031;-69
2023/08/08 05:46:12;;;;;;;5.40;2.50;;;12.30;99.90;;;;;;4981770;28;20081;-65
2023/08/08 05:48:37;;;;;;;6.40;1.15;;;12.30;99.90;;;;;;4977078;28;20074;-63
2023/08/08 05:51:04;;;;;;;3.22;1.10;;;12.30;99.90;;;;;;4980346;28;20030;-68
2023/08/08 05:53:31;;;;;;;4.03;1.27;;;12.40;99.90;;;;;;4979413;28;20061;-67
2023/08/08 05:55:57;;;;;;;2.30;1.30;;;12.40;99.90;;;;;;4981621;28;20018;-65
2023/08/08 05:58:22;;;;;;;4.07;1.45;;;12.40;99.90;;;;;;4979267;28;20030;-65
2023/08/08 06:00:48;;;;;;;3.42;1.05;;;12.40;99.90;;;;;;4980647;28;20429;-66
2023/08/08 06:03:13;;;;;;;3.13;1.15;;;12.50;99.90;;;;;;4976653;28;20403;-65
2023/08/08 06:05:39;;;;;;;1.77;0.80;;;12.50;99.90;;;;;;4981040;28;20061;-66
2023/08/08 06:08:07;;;;;;;3.03;1.15;;;12.50;99.90;;;;;;4976269;28;20027;-65
2023/08/08 06:10:34;;;;;;;4.00;1.10;;;12.60;99.90;;;;;;4982643;28;20022;-66
2023/08/08 06:13:00;;;;;;;4.72;1.35;;;12.60;99.90;;;;;;4977794;28;20053;-67
2023/08/08 06:15:25;;;;;;;2.05;1.02;;;12.70;99.90;;;;;;4981354;28;20077;-66
2023/08/08 06:17:51;;;;;;;2.05;1.05;;;12.70;99.90;;;;;;4977679;28;20019;-65
2023/08/08 06:20:17;;;;;;;4.05;1.08;;;12.80;99.90;;;;;;4983197;28;20026;-65
2023/08/08 06:22:42;;;;;;;1.98;1.15;;;12.90;99.90;;;;;;4978453;28;20787;-71
2023/08/08 06:25:08;;;;;;;2.60;1.00;;;13.00;99.90;;;;;;4981969;28;20026;-67
2023/08/08 06:27:34;;;;;;;1.42;1.20;;;13.00;99.90;;;;;;4979939;28;20081;-68
2023/08/08 06:29:59;;;;;;;4.22;1.38;;;13.10;99.90;;;;;;4977618;28;20031;-66
2023/08/08 06:32:25;;;;;;;2.83;2.20;;;13.10;99.90;;;;;;4982343;28;20034;-67
2023/08/08 06:34:50;;;;;;;3.70;1.58;;;13.20;99.90;;;;;;4975828;28;20109;-64
2023/08/08 06:37:16;;;;;;;6.30;0.80;;;13.40;99.90;;;;;;4983140;28;20030;-68
2023/08/08 06:39:41;;;;;;;2.35;0.90;;;13.50;99.90;;;;;;4980008;28;20508;-67
2023/08/08 06:42:07;;;;;;;4.38;1.38;;;13.50;99.90;;;;;;4982782;28;20189;-66
2023/08/08 06:44:40;;;;;;;4.50;1.60;;;13.70;99.90;;;;;;4979318;28;20421;-66
2023/08/08 06:47:06;;;;;;;2.30;1.50;;;13.70;99.90;;;;;;4977663;28;20493;-64
2023/08/08 06:49:31;;;;;;;6.90;1.60;;;13.80;99.90;;;;;;4982807;28;20107;-65
2023/08/08 06:51:57;;;;;;;3.53;1.20;;;13.80;99.90;;;;;;4977397;28;20023;-68
2023/08/08 06:54:22;;;;;;;2.22;1.20;;;13.90;99.90;;;;;;4983544;28;20041;-64
2023/08/08 06:56:48;;;;;;;3.20;1.55;;;14.10;99.90;;;;;;4976969;28;20019;-65
2023/08/08 06:59:13;;;;;;;1.73;1.35;;;14.20;99.90;;;;;;4980008;28;20034;-63
2023/08/08 07:01:40;;;;;;;3.88;1.35;;;14.30;99.90;;;;;;4978901;28;20034;-66
2023/08/08 07:04:05;;;;;;;5.03;1.67;;;14.40;99.90;;;;;;4981122;28;20033;-64
2023/08/08 07:06:31;;;;;;;3.85;1.13;;;14.40;99.90;;;;;;4977397;28;20386;-67
2023/08/08 07:08:56;;;;;;;5.82;2.08;;;14.40;99.90;;;;;;4981744;28;20034;-65
2023/08/08 07:11:22;;;;;;;4.35;1.48;;;14.40;99.90;;;;;;4976941;28;20034;-64
2023/08/08 07:13:47;;;;;;;2.53;1.10;;;14.50;99.90;;;;;;4976865;28;20042;-65
2023/08/08 07:16:13;;;;;;;4.60;1.67;;;14.50;99.90;;;;;;4976629;28;20021;-64
2023/08/08 07:18:39;;;;;;;2.45;1.25;;;14.60;99.90;;;;;;4979008;28;20063;-62
2023/08/08 07:21:05;;;;;;;2.95;0.90;;;14.70;99.90;;;;;;4977059;28;20110;-64
2023/08/08 07:23:31;;;;;;;3.50;1.25;;;14.80;99.90;;;;;;4977209;28;20109;-63
2023/08/08 07:25:56;;;;;;;5.43;1.90;;;15.00;99.90;;;;;;4976814;28;20621;-64
2023/08/08 07:28:22;;;;;;;5.72;1.20;;;15.10;99.90;;;;;;4978042;28;20433;-64
2023/08/08 07:30:48;;;;;;;3.47;1.40;;;15.30;99.90;;;;;;4978989;28;20030;-64
2023/08/08 07:33:13;;;;;;;2.55;1.30;;;15.50;99.90;;;;;;4980790;28;20482;-64
2023/08/08 07:35:39;;;;;;;3.55;1.13;;;15.50;99.90;;;;;;4977994;28;20477;-64
2023/08/08 07:38:05;;;;;;;1.90;1.15;;;15.50;99.90;;;;;;4984551;28;20077;-64
2023/08/08 07:40:31;;;;;;;4.75;1.05;;;15.60;99.90;;;;;;4979891;28;20501;-65
2023/08/08 07:42:56;;;;;;;1.50;1.00;;;15.80;99.90;;;;;;4986193;28;20019;-67
2023/08/08 07:45:22;;;;;;;4.80;1.80;;;15.80;99.90;;;;;;4980043;28;20563;-63
2023/08/08 07:47:47;;;;;;;3.55;1.00;;;16.00;99.90;;;;;;4981692;28;20509;-64
2023/08/08 07:50:14;;;;;;;2.22;1.33;;;16.20;99.90;;;;;;4984040;28;20456;-63
2023/08/08 07:52:40;;;;;;;4.28;0.73;;;16.30;99.90;;;;;;4981902;28;20481;-65
2023/08/08 07:55:06;;;;;;;8.85;2.00;;;16.30;99.90;;;;;;4985541;28;20031;-63
2023/08/08 07:57:35;;;;;;;3.58;1.27;;;16.30;99.90;;;;;;4980588;28;20035;-66
2023/08/08 08:00:08;;;;;;;1.63;0.82;;;16.40;99.90;;;;;;4984308;28;20456;-63
2023/08/08 08:02:33;;;;;;;2.78;0.77;;;16.60;99.90;;;;;;4976920;28;20540;-68
2023/08/08 08:04:59;;;;;;;4.45;1.35;;;16.70;99.90;;;;;;4978585;28;20027;-63
2023/08/08 08:07:24;;;;;;;4.32;1.27;;;16.70;99.90;;;;;;4979502;28;20037;-64
2023/08/08 08:09:50;;;;;;;3.65;1.00;;;16.50;99.90;;;;;;4980376;28;20030;-64
2023/08/08 08:12:15;;;;;;;1.77;0.93;;;16.40;99.90;;;;;;4971976;28;20097;-63
2023/08/08 08:14:41;;;;;;;2.97;1.40;;;16.30;99.90;;;;;;4977150;28;20482;-63
2023/08/08 08:17:06;;;;;;;1.90;0.88;;;16.20;99.90;;;;;;4980875;28;20491;-63
2023/08/08 08:19:32;;;;;;;1.63;0.80;;;16.00;99.90;;;;;;4979852;28;20030;-63
2023/08/08 08:21:57;;;;;;;5.70;1.83;;;16.00;99.90;;;;;;4976832;28;20027;-67
2023/08/08 08:24:23;;;;;;;4.05;1.13;;;15.80;99.90;;;;;;4978769;28;20022;-65
2023/08/08 08:26:49;;;;;;;5.03;1.10;;;15.60;99.90;;;;;;4980733;28;20019;-63
2023/08/08 08:29:14;;;;;;;3.38;1.40;;;15.50;99.90;;;;;;4982826;28;20056;-64
2023/08/08 08:31:40;;;;;;;6.50;1.30;;;15.30;99.90;;;;;;4980044;28;20037;-64
2023/08/08 08:34:05;;;;;;;2.08;1.10;;;15.20;99.90;;;;;;4981919;28;20035;-66
2023/08/08 08:36:31;;;;;;;3.50;1.40;;;15.00;99.90;;;;;;4981053;28;20022;-60
2023/08/08 08:38:56;;;;;;;3.00;1.08;;;14.90;99.90;;;;;;4982639;28;20076;-63
2023/08/08 08:41:25;;;;;;;3.03;0.93;;;14.70;99.90;;;;;;4982075;28;20036;-63
2023/08/08 08:43:51;;;;;;;1.73;0.98;;;14.50;99.90;;;;;;4982533;28;20046;-63
2023/08/08 08:46:20;;;;;;;3.72;1.10;;;14.40;99.90;;;;;;4982404;28;20081;-64
2023/08/08 08:48:47;;;;;;;4.30;0.95;;;14.20;99.90;;;;;;4979713;28;20505;-65
2023/08/08 08:51:12;;;;;;;3.65;1.00;;;14.20;99.90;;;;;;4982455;28;20488;-64
2023/08/08 08:53:39;;;;;;;3.42;1.17;;;14.20;99.90;;;;;;4976739;28;20081;-64
2023/08/08 08:56:05;;;;;;;1.92;1.00;;;14.20;99.90;;;;;;4976741;28;20027;-64
2023/08/08 08:58:31;;;;;;;2.10;0.88;;;14.20;99.90;;;;;;4984566;28;20034;-64
2023/08/08 09:00:58;;;;;;;2.80;1.20;;;14.20;99.90;;;;;;4978067;28;20053;-63
2023/08/08 09:03:24;;;;;;;2.58;1.02;;;14.20;99.90;;;;;;4979836;28;20037;-65
2023/08/08 09:05:50;;;;;;;4.30;1.45;;;14.30;99.90;;;;;;4976973;28;20019;-63
2023/08/08 09:08:16;;;;;;;1.33;0.77;;;14.20;99.90;;;;;;4979890;28;20508;-63
2023/08/08 09:10:42;;;;;;;1.20;0.70;;;14.20;99.90;;;;;;4980390;28;20521;-64
2023/08/08 09:13:07;;;;;;;1.75;0.80;;;14.20;99.90;;;;;;4978405;28;20117;-64
2023/08/08 09:15:34;;;;;;;1.38;0.80;;;14.20;99.90;;;;;;4978782;28;20489;-63
2023/08/08 09:18:00;;;;;;;1.20;1.05;;;14.30;99.90;;;;;;4979410;28;20117;-64
2023/08/08 09:20:30;;;;;;;3.50;0.95;;;14.30;99.90;;;;;;4980705;28;20042;-65
2023/08/08 09:22:56;;;;;;;2.40;1.00;;;14.50;99.90;;;;;;4981127;28;20022;-62
2023/08/08 09:25:23;;;;;;;1.08;0.95;;;14.60;99.90;;;;;;4979990;28;20649;-65
2023/08/08 09:27:50;;;;;;;2.45;1.08;;;14.60;99.90;;;;;;4979865;28;20026;-65
2023/08/08 09:30:16;;;;;;;1.92;1.15;;;14.70;99.90;;;;;;4981329;28;20026;-65
2023/08/08 09:32:43;;;;;;;5.18;1.35;;;14.90;99.90;;;;;;4979871;28;20739;-64
2023/08/08 09:35:09;;;;;;;2.88;1.13;;;15.00;99.90;;;;;;4981878;28;20037;-64
2023/08/08 09:37:36;;;;;;;2.55;1.10;;;15.10;99.90;;;;;;4981073;28;20505;-64
2023/08/08 09:40:07;;;;;;;4.60;0.88;;;15.10;99.90;;;;;;4981948;28;20110;-66
2023/08/08 09:42:34;;;;;;;1.48;0.85;;;15.10;99.90;;;;;;4980355;28;20022;-66
2023/08/08 09:45:01;;;;;;;3.10;0.68;;;15.00;99.90;;;;;;4981053;28;20026;-66
2023/08/08 09:47:31;;;;;;;1.00;0.65;;;14.90;99.90;;;;;;4979745;28;20026;-69
2023/08/08 09:50:04;;;;;;;1.30;0.90;;;14.70;99.90;;;;;;4980390;28;20088;-64
2023/08/08 09:52:31;;;;;;;1.70;0.65;;;14.60;99.90;;;;;;4979286;28;20032;-67
2023/08/08 09:54:57;;;;;;;3.58;1.23;;;14.60;99.90;;;;;;4979866;28;20089;-66
2023/08/08 09:57:24;;;;;;;0.93;0.77;;;14.60;99.90;;;;;;4979952;28;20490;-67
2023/08/08 09:59:51;;;;;;;2.83;0.85;;;14.70;99.90;;;;;;4974951;28;20717;-67
2023/08/08 10:02:17;;;;;;;3.15;1.10;;;14.80;99.90;;;;;;4983563;28;20089;-65
2023/08/08 10:04:46;;;;;;;1.23;0.77;;;14.80;99.90;;;;;;4973948;28;20430;-65
2023/08/08 10:07:12;;;;;;;3.85;0.60;;;15.00;99.90;;;;;;4978037;28;20544;-64
2023/08/08 10:09:37;;;;;;;1.10;0.60;;;15.10;99.90;;;;;;4977098;28;20038;-65
2023/08/08 10:12:05;;;;;;;1.33;0.90;;;15.10;99.90;;;;;;4979371;28;20030;-63
2023/08/08 10:14:31;;;;;;;1.25;0.50;;;15.20;99.90;;;;;;4984140;28;20176;-64
2023/08/08 10:16:58;;;;;;;2.50;0.70;;;15.10;99.90;;;;;;4978157;28;20027;-65
2023/08/08 10:19:24;;;;;;;2.30;0.60;;;15.10;99.90;;;;;;4985291;28;20389;-64
2023/08/08 10:22:00;;;;;;;1.17;0.70;;;15.10;99.90;;;;;;4971742;28;20014;-65
2023/08/08 10:24:25;;;;;;;;;;;15.10;99.90;;;;;;4985816;28;20038;-65
2023/08/08 10:26:57;;;;;;;1.90;0.80;;;15.10;99.90;;;;;;4975992;28;19906;-68
2023/08/08 10:29:25;;;;;;;2.17;0.85;;;15.20;99.90;;;;;;4977550;28;20030;-65
2023/08/08 10:32:01;;;;;;;2.47;1.02;;;15.30;99.90;;;;;;4983419;28;20030;-66
2023/08/08 10:34:42;;;;;;;1.83;0.60;;;15.50;99.90;;;;;;4974948;28;20023;-67
2023/08/08 10:37:13;;;;;;;2.28;1.02;;;15.70;99.90;;;;;;4982616;28;20524;-68
2023/08/08 10:39:54;;;;;;;3.13;1.20;;;15.70;99.90;;;;;;4978234;28;20458;-67
2023/08/08 10:42:22;;;;;;;1.80;0.90;;;15.70;99.90;;;;;;4980081;28;20039;-67
2023/08/08 10:44:54;;;;;;;6.00;3.42;;;15.70;99.90;;;;;;4978933;28;20022;-68
2023/08/08 10:47:31;;;;;;;3.28;1.42;;;15.70;99.90;;;;;;4978749;28;20339;-65
2023/08/08 10:49:58;;;;;;;2.33;1.10;;;15.60;99.90;;;;;;4985481;28;20029;-71
2023/08/08 10:52:24;;;;;;;3.70;1.13;;;15.60;99.90;;;;;;4979211;28;20030;-68
2023/08/08 10:54:56;;;;;;;3.20;0.90;;;15.40;99.90;;;;;;4980068;28;20026;-66
2023/08/08 10:57:26;;;;;;;2.28;0.95;;;15.20;99.90;;;;;;4979913;28;20098;-66
2023/08/08 10:59:52;;;;;;;2.70;0.88;;;15.00;99.90;;;;;;4969343;28;20389;-65
2023/08/08 11:02:19;;;;;;;2.75;1.15;;;14.90;99.90;;;;;;4984252;28;20034;-65
2023/08/08 11:04:44;;;;;;;1.13;0.70;;;14.80;99.90;;;;;;4983768;28;20057;-66
2023/08/08 11:07:11;;;;;;;1.05;0.90;;;14.80;99.90;;;;;;4987296;28;20481;-66
2023/08/08 11:09:36;;;;;;;3.05;1.00;;;14.70;99.90;;;;;;4982911;28;20023;-64
2023/08/08 11:12:02;;;;;;;4.35;1.70;;;14.80;99.90;;;;;;4980632;28;20031;-67
2023/08/08 11:14:28;;;;;;;2.25;0.90;;;14.90;99.90;;;;;;4980554;28;20050;-66
2023/08/08 11:16:54;;;;;;;1.20;0.60;;;15.00;99.90;;;;;;4981130;28;20496;-69
2023/08/08 11:19:20;;;;;;;1.50;0.80;;;15.00;99.90;;;;;;4980824;28;20022;-63
2023/08/08 11:21:47;;;;;;;2.28;0.80;;;15.00;99.90;;;;;;4981171;28;20046;-63
2023/08/08 11:24:13;;;;;;;1.75;1.13;;;15.00;99.90;;;;;;4980228;28;20022;-65
2023/08/08 11:26:45;;;;;;;4.85;1.10;;;15.10;99.90;;;;;;4980666;28;20059;-67
2023/08/08 11:29:10;;;;;;;1.63;0.77;;;15.20;99.90;;;;;;4975089;28;20513;-64
2023/08/08 11:31:37;;;;;;;1.38;0.65;;;15.30;99.90;;;;;;4986753;28;20096;-66
2023/08/08 11:34:06;;;;;;;1.35;0.50;;;15.30;99.90;;;;;;4977236;28;20022;-67
2023/08/08 11:36:35;;;;;;;1.15;0.65;;;15.20;99.90;;;;;;4986597;28;20373;-68
2023/08/08 11:39:08;;;;;;;3.15;1.10;;;15.20;99.90;;;;;;4978989;28;20018;-67
2023/08/08 11:41:34;;;;;;;0.55;0.52;;;15.10;99.90;;;;;;4988766;28;20030;-65
2023/08/08 11:44:01;;;;;;;5.30;0.90;;;15.10;99.90;;;;;;4980296;28;20263;-67
2023/08/08 11:46:27;;;;;;;2.28;0.70;;;15.20;99.90;;;;;;4979430;28;20095;-65
2023/08/08 11:48:53;;;;;;;4.88;1.55;;;15.30;99.90;;;;;;4987118;28;20026;-65
2023/08/08 11:51:18;;;;;;;3.42;1.33;;;15.40;99.90;;;;;;4980620;28;20019;-65
2023/08/08 11:53:52;;;;;;;3.55;1.02;;;15.50;99.90;;;;;;4987145;28;20038;-65
2023/08/08 11:56:20;;;;;;;1.52;0.90;;;15.50;99.90;;;;;;4975970;28;20019;-65
2023/08/08 11:58:46;;;;;;;4.75;1.20;;;15.50;99.90;;;;;;4982988;28;20489;-65
2023/08/08 12:01:14;;;;;;;2.33;1.00;;;15.50;99.90;;;;;;4980827;28;20041;-68
2023/08/08 12:03:40;;;;;;;7.50;1.00;;;15.60;99.90;;;;;;4982269;28;20015;-66
2023/08/08 12:06:13;;;;;;;2.72;1.15;;;15.70;99.90;;;;;;4980702;28;20474;-66
2023/08/08 12:08:41;;;;;;;4.70;1.60;;;15.80;99.90;;;;;;4981586;28;20034;-65
2023/08/08 12:11:09;;;;;;;4.28;1.17;;;15.90;99.90;;;;;;4981066;28;20058;-64
2023/08/08 12:13:39;;;;;;;6.28;1.67;;;16.10;99.90;;;;;;4980445;28;20031;-68
2023/08/08 12:16:06;;;;;;;6.68;1.45;;;16.10;99.90;;;;;;4980958;28;20026;-65
2023/08/08 12:18:32;;;;;;;2.40;1.13;;;16.10;99.90;;;;;;4982147;28;20557;-69
2023/08/08 12:20:58;;;;;;;7.88;2.50;;;16.30;99.90;;;;;;4981467;28;20161;-62
2023/08/08 12:23:27;;;;;;;2.60;0.88;;;16.30;99.90;;;;;;4983137;28;20045;-64
2023/08/08 12:25:53;;;;;;;5.82;1.60;;;16.30;99.90;;;;;;4982900;28;20405;-64
2023/08/08 12:28:19;;;;;;;4.85;1.48;;;16.40;99.90;;;;;;4983219;28;20030;-64
2023/08/08 12:30:44;;;;;;;9.27;1.48;;;16.50;99.90;;;;;;4980710;28;20041;-65
2023/08/08 12:33:10;;;;;;;5.47;1.40;;;16.50;99.90;;;;;;4983093;28;20018;-66
2023/08/08 12:35:35;;;;;;;3.95;1.10;;;16.60;99.90;;;;;;4981839;28;20034;-66
2023/08/08 12:38:02;;;;;;;2.92;0.73;;;16.60;99.90;;;;;;4983101;28;20085;-65
2023/08/08 12:40:28;;;;;;;5.30;1.35;;;16.70;99.90;;;;;;4982454;28;20019;-66
2023/08/08 12:42:54;;;;;;;3.05;1.88;;;16.90;99.90;;;;;;4982555;28;20460;-65
2023/08/08 12:45:19;;;;;;;4.70;1.00;;;17.00;99.90;;;;;;4982025;28;20034;-65